createdAt,value
2023-01-19T00:01:26.888Z,51163.94
2023-01-19T00:03:54.252Z,51211.66
2023-01-19T00:06:22.291Z,51217.59
2023-01-19T00:08:52.034Z,51199.72
2023-01-19T00:11:19.875Z,51191.78
2023-01-19T00:13:50.511Z,51217.59
2023-01-19T00:16:21.802Z,51217.59
2023-01-19T00:18:51.171Z,51197.72
2023-01-19T00:21:19.129Z,51191.78
2023-01-19T00:23:48.835Z,51213.63
2023-01-19T00:26:17.302Z,51217.59
2023-01-19T00:28:45.096Z,51213.63
2023-01-19T00:31:12.999Z,51219.59
2023-01-19T00:33:40.097Z,51215.63
2023-01-19T00:36:07.739Z,51217.59
2023-01-19T00:38:34.793Z,51215.63
2023-01-19T00:41:01.888Z,51191.78
2023-01-19T00:43:28.939Z,51215.63
2023-01-19T00:45:56.048Z,51207.66
2023-01-19T00:48:23.177Z,51213.63
2023-01-19T00:50:50.225Z,51209.66
2023-01-19T00:53:17.349Z,51201.72
2023-01-19T00:55:44.448Z,51193.75
2023-01-19T00:58:11.484Z,51215.63
2023-01-19T01:00:38.874Z,51207.66
2023-01-19T01:03:05.978Z,51229.53
2023-01-19T01:05:33.173Z,51173.88
2023-01-19T01:08:00.226Z,51209.66
2023-01-19T01:10:29.637Z,51201.72
2023-01-19T01:12:59.031Z,51221.59
2023-01-19T01:15:28.322Z,51203.69
2023-01-19T01:17:56.152Z,51213.63
2023-01-19T01:20:28.201Z,51213.63
2023-01-19T01:22:57.112Z,51193.75
2023-01-19T01:25:27.113Z,51219.59
2023-01-19T01:27:55.459Z,51161.94
2023-01-19T01:30:23.458Z,51197.72
2023-01-19T01:32:50.678Z,51199.72
2023-01-19T01:35:17.998Z,51177.84
2023-01-19T01:37:45.210Z,51217.59
2023-01-19T01:40:15.109Z,51211.66
2023-01-19T01:42:42.722Z,51193.75
2023-01-19T01:45:38.461Z,51199.72
2023-01-19T01:48:28.726Z,51201.72
2023-01-19T01:51:22.094Z,51207.66
2023-01-19T01:54:10.474Z,51205.69
2023-01-19T01:56:48.773Z,51205.69
2023-01-19T01:59:34.862Z,51199.72
2023-01-19T02:02:33.340Z,51213.63
2023-01-19T02:05:06.714Z,51179.84
2023-01-19T02:08:32.306Z,51207.66
2023-01-19T02:11:19.476Z,51207.66
2023-01-19T02:13:47.723Z,51154.00
2023-01-19T02:16:16.691Z,51187.78
2023-01-19T02:18:45.287Z,51201.72
2023-01-19T02:21:31.967Z,51195.75
2023-01-19T02:24:02.977Z,51217.59
2023-01-19T02:26:43.065Z,51193.75
2023-01-19T02:29:20.431Z,51157.97
2023-01-19T02:31:47.839Z,51241.47
2023-01-19T02:34:18.356Z,51191.78
2023-01-19T02:37:06.662Z,51201.72
2023-01-19T02:39:45.210Z,51189.78
2023-01-19T02:42:19.939Z,51167.91
2023-01-19T02:44:50.611Z,51191.78
2023-01-19T02:47:18.445Z,51195.75
2023-01-19T02:49:57.319Z,51157.97
2023-01-19T02:52:26.156Z,51171.88
2023-01-19T02:55:18.606Z,51177.84
2023-01-19T02:57:54.492Z,51205.69
2023-01-19T03:01:01.182Z,51205.69
2023-01-19T03:04:00.891Z,51207.66
2023-01-19T03:06:55.655Z,51205.69
2023-01-19T03:09:43.431Z,51205.69
2023-01-19T03:12:34.763Z,51165.91
2023-01-19T03:15:21.104Z,51193.75
2023-01-19T03:17:51.579Z,51195.75
2023-01-19T03:20:24.777Z,51191.78
2023-01-19T03:23:03.915Z,51187.78
2023-01-19T03:25:35.957Z,51201.72
2023-01-19T03:28:04.903Z,51197.72
2023-01-19T03:30:46.798Z,51169.91
2023-01-19T03:33:27.465Z,51201.72
2023-01-19T03:36:03.844Z,51187.78
2023-01-19T03:38:36.262Z,51187.78
2023-01-19T03:41:10.034Z,51175.88
2023-01-19T03:43:39.378Z,51167.91
2023-01-19T03:46:07.582Z,51209.66
2023-01-19T03:48:34.983Z,51197.72
2023-01-19T03:51:08.365Z,51199.72
2023-01-19T03:53:35.852Z,51211.66
2023-01-19T03:56:03.734Z,51195.75
2023-01-19T03:58:30.939Z,51205.69
2023-01-19T04:00:58.304Z,51195.75
2023-01-19T04:03:25.384Z,51197.72
2023-01-19T04:05:52.476Z,51179.84
2023-01-19T04:08:19.712Z,51203.69
2023-01-19T04:10:46.944Z,51193.75
2023-01-19T04:13:14.211Z,51213.63
2023-01-19T04:15:41.468Z,51211.66
2023-01-19T04:18:09.506Z,51201.72
2023-01-19T04:20:37.315Z,51183.81
2023-01-19T04:23:05.356Z,51211.66
2023-01-19T04:25:33.204Z,51199.72
2023-01-19T04:28:00.362Z,51193.75
2023-01-19T04:30:27.957Z,51219.59
2023-01-19T04:32:58.655Z,51197.72
2023-01-19T04:35:26.005Z,51239.47
2023-01-19T04:37:53.085Z,51223.56
2023-01-19T04:40:20.731Z,51177.84
2023-01-19T04:42:47.936Z,51167.91
2023-01-19T04:45:15.457Z,51189.78
2023-01-19T04:47:42.838Z,51205.69
2023-01-19T04:50:11.340Z,51171.88
2023-01-19T04:52:38.531Z,51193.75
2023-01-19T04:55:07.111Z,51207.66
2023-01-19T04:57:34.263Z,51171.88
2023-01-19T05:00:01.351Z,51197.72
2023-01-19T05:02:28.538Z,51175.88
2023-01-19T05:04:55.663Z,51185.81
2023-01-19T05:07:22.789Z,51189.78
2023-01-19T05:09:49.950Z,51179.84
2023-01-19T05:12:17.441Z,51197.72
2023-01-19T05:14:44.559Z,51185.81
2023-01-19T05:17:11.991Z,51199.72
2023-01-19T05:19:39.338Z,51173.88
2023-01-19T05:22:06.818Z,51215.63
2023-01-19T05:24:33.929Z,51211.66
2023-01-19T05:27:01.314Z,51185.81
2023-01-19T05:29:28.466Z,51169.91
2023-01-19T05:31:55.600Z,51169.91
2023-01-19T05:34:22.661Z,51201.72
2023-01-19T05:36:49.806Z,51213.63
2023-01-19T05:39:17.002Z,51195.75
2023-01-19T05:41:45.563Z,51197.72
2023-01-19T05:44:13.745Z,51193.75
2023-01-19T05:46:41.033Z,51189.78
2023-01-19T05:49:08.219Z,51159.97
2023-01-19T05:51:38.169Z,51157.97
2023-01-19T05:54:06.174Z,51179.84
2023-01-19T05:56:33.525Z,51179.84
2023-01-19T05:59:01.728Z,51199.72
2023-01-19T06:01:29.063Z,51205.69
2023-01-19T06:03:56.597Z,51155.97
2023-01-19T06:06:23.681Z,51173.88
2023-01-19T06:08:50.964Z,51159.97
2023-01-19T06:11:18.152Z,51199.72
2023-01-19T06:13:45.290Z,51173.88
2023-01-19T06:16:12.416Z,51165.91
2023-01-19T06:18:39.542Z,51169.91
2023-01-19T06:21:08.528Z,51201.72
2023-01-19T06:23:36.895Z,51197.72
2023-01-19T06:26:04.122Z,51197.72
2023-01-19T06:28:31.529Z,51185.81
2023-01-19T06:30:58.705Z,51203.69
2023-01-19T06:33:27.591Z,51191.78
2023-01-19T06:35:55.153Z,51205.69
2023-01-19T06:38:22.552Z,51183.81
2023-01-19T06:40:55.578Z,51199.72
2023-01-19T06:43:22.708Z,51209.66
2023-01-19T06:45:50.429Z,51169.91
2023-01-19T06:48:18.124Z,51191.78
2023-01-19T06:50:46.557Z,51209.66
2023-01-19T06:53:16.706Z,51187.78
2023-01-19T06:55:44.350Z,51199.72
2023-01-19T06:58:12.418Z,51193.75
2023-01-19T07:00:39.598Z,51189.78
2023-01-19T07:03:08.744Z,51189.78
2023-01-19T07:05:36.732Z,51205.69
2023-01-19T07:08:04.487Z,51157.97
2023-01-19T07:11:26.596Z,51177.84
2023-01-19T07:13:19.115Z,51219.59
2023-01-19T07:15:46.205Z,51191.78
2023-01-19T07:18:13.251Z,51207.66
2023-01-19T07:20:40.483Z,51209.66
2023-01-19T07:23:07.530Z,51157.97
2023-01-19T07:25:34.774Z,51154.00
2023-01-19T07:28:02.311Z,51209.66
2023-01-19T07:30:29.462Z,51187.78
2023-01-19T07:32:58.239Z,51169.91
2023-01-19T07:35:26.100Z,51225.56
2023-01-19T07:37:53.153Z,51199.72
2023-01-19T07:40:21.118Z,51189.78
2023-01-19T07:42:50.546Z,51175.88
2023-01-19T07:45:20.374Z,51155.97
2023-01-19T07:47:49.779Z,51197.72
2023-01-19T07:50:21.376Z,51197.72
2023-01-19T07:52:53.654Z,51189.78
2023-01-19T07:55:22.314Z,51197.72
2023-01-19T07:57:52.512Z,51171.88
2023-01-19T08:00:24.646Z,51225.56
2023-01-19T08:02:53.796Z,51189.78
2023-01-19T08:05:21.548Z,51209.66
2023-01-19T08:07:48.861Z,51191.78
2023-01-19T08:10:18.681Z,51203.69
2023-01-19T08:12:45.810Z,51191.78
2023-01-19T08:15:12.886Z,51189.78
2023-01-19T08:17:39.929Z,51157.97
2023-01-19T08:20:09.365Z,51175.88
2023-01-19T08:22:36.895Z,51191.78
2023-01-19T08:25:04.657Z,51213.63
2023-01-19T08:27:31.757Z,51199.72
2023-01-19T08:29:59.164Z,51189.78
2023-01-19T08:32:26.314Z,51205.69
2023-01-19T08:34:53.390Z,51175.88
2023-01-19T08:37:20.604Z,51177.84
2023-01-19T08:39:48.024Z,51171.88
2023-01-19T08:42:15.063Z,51197.72
2023-01-19T08:44:57.192Z,51179.84
2023-01-19T08:47:25.005Z,51165.91
2023-01-19T08:49:52.127Z,51163.94
2023-01-19T08:52:19.235Z,51189.78
2023-01-19T08:54:46.323Z,51183.81
2023-01-19T08:57:13.349Z,51197.72
2023-01-19T08:59:40.386Z,51191.78
2023-01-19T09:02:09.531Z,51154.00
2023-01-19T09:04:36.659Z,51209.66
2023-01-19T09:07:03.697Z,51189.78
2023-01-19T09:09:30.819Z,51211.66
2023-01-19T09:11:57.878Z,51195.75
2023-01-19T09:14:24.940Z,51165.91
2023-01-19T09:16:52.268Z,51161.94
2023-01-19T09:19:19.477Z,51193.75
2023-01-19T09:21:46.601Z,51211.66
2023-01-19T09:24:13.811Z,51205.69
2023-01-19T09:26:40.983Z,51199.72
2023-01-19T09:29:08.492Z,51235.50
2023-01-19T09:31:35.836Z,51201.72
2023-01-19T09:34:03.101Z,51171.88
2023-01-19T09:36:30.309Z,51175.88
2023-01-19T09:38:57.528Z,51209.66
2023-01-19T09:41:26.364Z,51209.66
2023-01-19T09:44:00.744Z,51197.72
2023-01-19T09:46:44.636Z,51221.59
2023-01-19T09:49:17.296Z,51201.72
2023-01-19T09:51:50.351Z,51167.91
2023-01-19T09:54:41.128Z,51199.72
2023-01-19T09:57:12.556Z,51209.66
2023-01-19T09:59:41.632Z,51215.63
2023-01-19T10:02:29.969Z,51197.72
2023-01-19T10:05:08.464Z,51221.59
2023-01-19T10:08:13.026Z,51199.72
2023-01-19T10:10:46.071Z,51217.59
2023-01-19T10:13:39.037Z,51207.66
2023-01-19T10:16:33.975Z,51207.66
2023-01-19T10:19:28.489Z,51177.84
2023-01-19T10:21:59.210Z,51207.66
2023-01-19T10:24:36.748Z,51201.72
2023-01-19T10:27:11.403Z,51209.66
2023-01-19T10:29:38.720Z,51217.59
2023-01-19T10:32:17.455Z,51205.69
2023-01-19T10:34:44.613Z,51203.69
2023-01-19T10:37:17.760Z,51211.66
2023-01-19T10:39:51.990Z,51197.72
2023-01-19T10:42:19.574Z,51201.72
2023-01-19T10:44:47.047Z,51201.72
2023-01-19T10:47:23.544Z,51205.69
2023-01-19T10:49:51.438Z,51199.72
2023-01-19T10:52:31.499Z,51207.66
2023-01-19T10:55:00.263Z,51201.72
2023-01-19T10:57:32.862Z,51227.56
2023-01-19T10:59:59.987Z,51221.59
2023-01-19T11:02:30.255Z,51207.66
2023-01-19T11:05:22.654Z,51197.72
2023-01-19T11:07:49.783Z,51201.72
2023-01-19T11:10:22.549Z,51209.66
2023-01-19T11:13:13.026Z,51229.53
2023-01-19T11:15:47.658Z,51179.84
2023-01-19T11:18:41.417Z,51221.59
2023-01-19T11:21:25.266Z,51217.59
2023-01-19T11:23:56.207Z,51229.53
2023-01-19T11:26:40.832Z,51235.50
2023-01-19T11:29:29.731Z,51207.66
2023-01-19T11:32:20.525Z,51221.59
2023-01-19T11:34:48.301Z,51225.56
2023-01-19T11:37:21.584Z,51227.56
2023-01-19T11:39:55.653Z,51265.31
2023-01-19T11:42:23.463Z,51233.50
2023-01-19T11:45:02.629Z,51261.34
2023-01-19T11:47:49.763Z,51257.38
2023-01-19T11:50:41.818Z,51249.41
2023-01-19T11:53:24.301Z,51257.38
2023-01-19T11:56:04.951Z,51251.41
2023-01-19T11:58:40.351Z,51249.41
2023-01-19T12:01:25.442Z,51257.38
2023-01-19T12:04:10.519Z,51233.50
2023-01-19T12:06:45.526Z,51281.22
2023-01-19T12:09:22.951Z,51263.34
2023-01-19T12:12:01.868Z,51265.31
2023-01-19T12:15:02.071Z,51259.34
2023-01-19T12:17:41.151Z,51277.25
2023-01-19T12:20:35.605Z,51289.19
2023-01-19T12:23:23.465Z,51295.16
2023-01-19T12:26:08.651Z,51299.13
2023-01-19T12:28:43.142Z,51313.03
2023-01-19T12:31:15.209Z,51321.00
2023-01-19T12:33:42.351Z,51305.09
2023-01-19T12:36:37.068Z,51328.94
2023-01-19T12:39:21.601Z,51372.69
2023-01-19T12:41:51.119Z,51408.47
2023-01-19T12:44:24.525Z,51420.41
2023-01-19T12:47:04.220Z,51420.41
2023-01-19T12:50:03.218Z,51412.44
2023-01-19T12:52:41.164Z,51388.59
2023-01-19T12:55:14.356Z,51370.69
2023-01-19T12:57:56.590Z,51386.59
2023-01-19T13:00:23.637Z,51386.59
2023-01-19T13:03:00.364Z,51374.66
2023-01-19T13:05:39.639Z,51346.84
2023-01-19T13:08:06.814Z,51344.84
2023-01-19T13:11:02.379Z,51344.84
2023-01-19T13:13:42.159Z,51305.09
2023-01-19T13:16:22.377Z,51324.97
2023-01-19T13:19:01.542Z,51317.00
2023-01-19T13:21:36.014Z,51324.97
2023-01-19T13:24:07.290Z,51326.94
2023-01-19T13:26:36.391Z,51328.94
2023-01-19T13:29:11.147Z,51322.97
2023-01-19T13:31:42.661Z,51319.00
2023-01-19T13:34:17.488Z,51293.16
2023-01-19T13:36:48.290Z,51279.25
2023-01-19T13:39:30.763Z,51261.34
2023-01-19T13:42:06.573Z,51299.13
2023-01-19T13:44:41.998Z,51295.16
2023-01-19T13:47:22.530Z,51291.16
2023-01-19T13:49:56.199Z,51307.06
2023-01-19T13:52:29.377Z,51281.22
2023-01-19T13:55:05.701Z,51321.00
2023-01-19T13:57:39.946Z,51303.09
2023-01-19T14:00:16.152Z,51279.25
2023-01-19T14:03:13.437Z,51326.94
2023-01-19T14:05:45.103Z,51303.09
2023-01-19T14:08:15.254Z,51322.97
2023-01-19T14:10:47.062Z,51321.00
2023-01-19T14:13:19.892Z,51382.63
2023-01-19T14:15:50.124Z,51348.81
2023-01-19T14:18:17.096Z,51315.03
2023-01-19T14:21:13.017Z,51287.19
2023-01-19T14:24:06.749Z,51261.34
2023-01-19T14:26:49.539Z,51245.44
2023-01-19T14:29:33.130Z,51251.41
2023-01-19T14:32:20.688Z,51261.34
2023-01-19T14:35:04.607Z,51245.44
2023-01-19T14:37:35.968Z,51273.28
2023-01-19T14:40:10.947Z,51253.41
2023-01-19T14:42:55.454Z,51233.50
2023-01-19T14:45:34.963Z,51257.38
2023-01-19T14:48:17.892Z,51235.50
2023-01-19T14:51:01.991Z,51253.41
2023-01-19T14:53:37.677Z,51237.50
2023-01-19T14:56:06.363Z,51279.25
2023-01-19T14:58:35.880Z,51237.50
2023-01-19T15:01:03.956Z,51259.34
2023-01-19T15:03:44.762Z,51259.34
2023-01-19T15:06:17.612Z,51255.38
2023-01-19T15:08:53.303Z,51275.25
2023-01-19T15:11:34.958Z,51267.31
2023-01-19T15:14:03.350Z,51247.44
2023-01-19T15:16:34.382Z,51253.41
2023-01-19T15:19:01.537Z,51261.34
2023-01-19T15:21:28.608Z,51237.50
2023-01-19T15:23:55.866Z,51249.41
2023-01-19T15:26:26.628Z,51241.47
2023-01-19T15:28:53.904Z,51259.34
2023-01-19T15:31:23.710Z,51251.41
2023-01-19T15:33:51.076Z,51235.50
2023-01-19T15:36:21.229Z,51255.38
2023-01-19T15:38:52.100Z,51253.41
2023-01-19T15:41:30.069Z,51261.34
2023-01-19T15:43:57.970Z,51255.38
2023-01-19T15:46:25.915Z,51239.47
2023-01-19T15:48:54.223Z,51261.34
2023-01-19T15:51:25.954Z,51237.50
2023-01-19T15:53:54.570Z,51231.53
2023-01-19T15:56:31.906Z,51247.44
2023-01-19T15:58:59.851Z,51239.47
2023-01-19T16:01:34.012Z,51241.47
2023-01-19T16:04:05.933Z,51259.34
2023-01-19T16:06:34.185Z,51237.50
2023-01-19T16:09:02.640Z,51241.47
2023-01-19T16:11:35.109Z,51237.50
2023-01-19T16:14:02.621Z,51237.50
2023-01-19T16:16:30.176Z,51239.47
2023-01-19T16:18:58.043Z,51209.66
2023-01-19T16:21:25.561Z,51251.41
2023-01-19T16:23:53.231Z,51233.50
2023-01-19T16:26:29.474Z,51231.53
2023-01-19T16:28:59.736Z,51205.69
2023-01-19T16:31:27.447Z,51223.56
2023-01-19T16:33:54.966Z,51239.47
2023-01-19T16:36:35.058Z,51241.47
2023-01-19T16:39:06.586Z,51217.59
2023-01-19T16:41:34.865Z,51213.63
2023-01-19T16:44:02.004Z,51221.59
2023-01-19T16:46:33.971Z,51231.53
2023-01-19T16:49:09.670Z,51221.59
2023-01-19T16:51:37.360Z,51249.41
2023-01-19T16:54:04.567Z,51221.59
2023-01-19T16:56:32.065Z,51211.66
2023-01-19T16:59:00.019Z,51217.59
2023-01-19T17:01:29.489Z,51241.47
2023-01-19T17:03:57.122Z,51249.41
2023-01-19T17:06:25.222Z,51221.59
2023-01-19T17:08:53.344Z,51221.59
2023-01-19T17:11:29.740Z,51253.41
2023-01-19T17:14:03.581Z,51225.56
2023-01-19T17:16:33.667Z,51225.56
2023-01-19T17:19:03.981Z,51233.50
2023-01-19T17:21:31.760Z,51217.59
2023-01-19T17:23:59.336Z,51205.69
2023-01-19T17:26:31.293Z,51241.47
2023-01-19T17:29:05.484Z,51219.59
2023-01-19T17:31:33.260Z,51225.56
2023-01-19T17:34:01.279Z,51215.63
2023-01-19T17:36:30.789Z,51213.63
2023-01-19T17:39:00.596Z,51239.47
2023-01-19T17:41:30.404Z,51243.47
2023-01-19T17:43:59.752Z,51239.47
2023-01-19T17:46:29.123Z,51233.50
2023-01-19T17:48:59.374Z,51193.75
2023-01-19T17:51:27.935Z,51237.50
2023-01-19T17:53:57.979Z,51227.56
2023-01-19T17:56:29.986Z,51225.56
2023-01-19T17:58:58.943Z,51239.47
2023-01-19T18:01:29.106Z,51229.53
2023-01-19T18:03:57.737Z,51225.56
2023-01-19T18:06:25.142Z,51221.59
2023-01-19T18:08:52.679Z,51223.56
2023-01-19T18:11:21.329Z,51221.59
2023-01-19T18:13:50.550Z,51239.47
2023-01-19T18:16:25.667Z,51227.56
2023-01-19T18:18:54.717Z,51217.59
2023-01-19T18:21:24.288Z,51233.50
2023-01-19T18:23:51.797Z,51225.56
2023-01-19T18:26:22.224Z,51219.59
2023-01-19T18:28:50.239Z,51225.56
2023-01-19T18:31:19.498Z,51229.53
2023-01-19T18:33:48.933Z,51229.53
2023-01-19T18:36:17.246Z,51221.59
2023-01-19T18:38:45.236Z,51215.63
2023-01-19T18:41:21.093Z,51219.59
2023-01-19T18:43:49.060Z,51239.47
2023-01-19T18:46:16.417Z,51233.50
2023-01-19T18:48:44.028Z,51221.59
2023-01-19T18:51:14.576Z,51229.53
2023-01-19T18:53:42.892Z,51221.59
2023-01-19T18:56:13.834Z,51245.44
2023-01-19T18:58:41.414Z,51209.66
2023-01-19T19:01:34.974Z,51223.56
2023-01-19T19:04:02.600Z,51227.56
2023-01-19T19:06:29.830Z,51229.53
2023-01-19T19:08:59.521Z,51245.44
2023-01-19T19:11:27.254Z,51227.56
2023-01-19T19:14:02.745Z,51261.34
2023-01-19T19:16:31.625Z,51251.41
2023-01-19T19:18:59.932Z,51253.41
2023-01-19T19:21:27.310Z,51241.47
2023-01-19T19:23:57.248Z,51215.63
2023-01-19T19:26:26.154Z,51225.56
2023-01-19T19:28:53.224Z,51231.53
2023-01-19T19:31:23.047Z,51231.53
2023-01-19T19:33:51.342Z,51233.50
2023-01-19T19:36:20.019Z,51227.56
2023-01-19T19:38:48.833Z,51207.66
2023-01-19T19:41:27.177Z,51235.50
2023-01-19T19:43:55.690Z,51241.47
2023-01-19T19:46:24.489Z,51235.50
2023-01-19T19:48:52.611Z,51193.75
2023-01-19T19:51:27.079Z,51233.50
2023-01-19T19:53:58.842Z,51253.41
2023-01-19T19:56:29.143Z,51211.66
2023-01-19T19:58:59.050Z,51193.75
2023-01-19T20:01:33.004Z,51233.50
2023-01-19T20:04:10.868Z,51215.63
2023-01-19T20:06:44.889Z,51233.50
2023-01-19T20:09:14.139Z,51253.41
2023-01-19T20:11:43.921Z,51229.53
2023-01-19T20:14:12.920Z,51251.41
2023-01-19T20:16:40.336Z,51251.41
2023-01-19T20:19:07.693Z,51207.66
2023-01-19T20:21:37.885Z,51241.47
2023-01-19T20:24:14.727Z,51213.63
2023-01-19T20:26:50.437Z,51217.59
2023-01-19T20:29:18.284Z,51247.44
2023-01-19T20:31:53.286Z,51227.56
2023-01-19T20:34:25.532Z,51219.59
2023-01-19T20:36:53.937Z,51245.44
2023-01-19T20:39:23.187Z,51221.59
2023-01-19T20:41:51.457Z,51221.59
2023-01-19T20:44:22.921Z,51229.53
2023-01-19T20:46:51.028Z,51205.69
2023-01-19T20:49:19.882Z,51257.38
2023-01-19T20:51:47.165Z,51239.47
2023-01-19T20:54:18.174Z,51221.59
2023-01-19T20:56:45.476Z,51245.44
2023-01-19T20:59:13.554Z,51221.59
2023-01-19T21:01:42.307Z,51241.47
2023-01-19T21:04:10.867Z,51217.59
2023-01-19T21:06:38.987Z,51225.56
2023-01-19T21:09:07.365Z,51233.50
2023-01-19T21:11:36.148Z,51267.31
2023-01-19T21:14:04.073Z,51205.69
2023-01-19T21:16:33.998Z,51233.50
2023-01-19T21:19:01.447Z,51205.69
2023-01-19T21:21:31.392Z,51245.44
2023-01-19T21:24:01.120Z,51235.50
2023-01-19T21:26:33.307Z,51225.56
2023-01-19T21:29:02.606Z,51237.50
2023-01-19T21:31:30.250Z,51233.50
2023-01-19T21:33:58.181Z,51249.41
2023-01-19T21:36:25.578Z,51211.66
2023-01-19T21:38:55.593Z,51221.59
2023-01-19T21:41:23.119Z,51223.56
2023-01-19T21:43:50.202Z,51235.50
2023-01-19T21:46:32.187Z,51249.41
2023-01-19T21:49:06.451Z,51205.69
2023-01-19T21:51:36.709Z,51259.34
2023-01-19T21:54:07.409Z,51229.53
2023-01-19T21:56:35.690Z,51231.53
2023-01-19T21:59:03.443Z,51221.59
2023-01-19T22:01:32.715Z,51253.41
2023-01-19T22:04:00.490Z,51239.47
2023-01-19T22:06:28.277Z,51243.47
2023-01-19T22:08:55.854Z,51219.59
2023-01-19T22:11:23.566Z,51241.47
2023-01-19T22:13:51.410Z,51241.47
2023-01-19T22:16:21.277Z,51215.63
2023-01-19T22:19:01.224Z,51227.56
2023-01-19T22:21:33.244Z,51229.53
2023-01-19T22:24:03.463Z,51263.34
2023-01-19T22:26:32.360Z,51237.50
2023-01-19T22:29:01.483Z,51221.59
2023-01-19T22:31:30.508Z,51225.56
2023-01-19T22:33:58.285Z,51229.53
2023-01-19T22:36:28.772Z,51223.56
2023-01-19T22:39:04.934Z,51205.69
2023-01-19T22:41:35.387Z,51231.53
2023-01-19T22:44:07.150Z,51205.69
2023-01-19T22:46:36.318Z,51217.59
2023-01-19T22:49:05.166Z,51231.53
2023-01-19T22:51:33.369Z,51225.56
2023-01-19T22:54:01.356Z,51227.56
2023-01-19T22:56:31.820Z,51233.50
2023-01-19T22:59:00.129Z,51239.47
2023-01-19T23:01:35.792Z,51219.59
2023-01-19T23:04:04.573Z,51225.56
2023-01-19T23:06:36.367Z,51219.59
2023-01-19T23:09:08.439Z,51253.41
2023-01-19T23:11:44.893Z,51227.56
2023-01-19T23:14:16.835Z,51257.38
2023-01-19T23:16:44.123Z,51241.47
2023-01-19T23:19:12.858Z,51247.44
2023-01-19T23:21:40.957Z,51201.72
2023-01-19T23:24:08.238Z,51235.50
2023-01-19T23:26:41.025Z,51257.38
2023-01-19T23:29:13.918Z,51227.56
2023-01-19T23:31:48.868Z,51233.50
2023-01-19T23:34:16.809Z,51247.44
2023-01-19T23:36:44.815Z,51213.63
2023-01-19T23:39:21.165Z,51225.56
2023-01-19T23:41:49.143Z,51247.44
2023-01-19T23:44:17.258Z,51241.47
2023-01-19T23:46:44.965Z,51225.56
2023-01-19T23:49:13.345Z,51237.50
2023-01-19T23:51:41.131Z,51233.50
2023-01-19T23:54:08.286Z,51237.50
2023-01-19T23:56:38.054Z,51255.38
2023-01-19T23:59:09.163Z,51225.56
